Time;durP1;ratioP1;P1;durP2;ratioP2;P2;SDS_P1;SDS_P2;PMS_P1;PMS_P2;Temp;Humidity;BMP_temperature;BMP_pressure;BME280_temperature;BME280_humidity;BME280_pressure;Samples;Min_cycle;Max_cycle;Signal;HPM_P1;HPM_P2
2024/01/17 00:00:43;;;;;;;17.58;10.50;;;2.70;93.00;;;;;;4249416;27;20047;-57
2024/01/17 00:02:45;;;;;;;17.20;10.95;;;2.70;92.90;;;;;;4248993;27;20562;-57
2024/01/17 00:04:50;;;;;;;17.17;10.10;;;2.60;93.00;;;;;;4249185;27;20058;-61
2024/01/17 00:06:52;;;;;;;21.85;10.55;;;2.60;93.40;;;;;;4249424;27;20084;-57
2024/01/17 00:08:54;;;;;;;19.75;10.45;;;2.60;93.30;;;;;;4249075;27;20483;-57
2024/01/17 00:10:56;;;;;;;16.63;9.80;;;2.70;93.90;;;;;;4249147;27;20122;-57
2024/01/17 00:12:59;;;;;;;17.02;10.00;;;2.90;93.60;;;;;;4249194;27;20053;-56
2024/01/17 00:15:01;;;;;;;14.73;9.15;;;2.90;93.40;;;;;;4249100;27;20474;-57
2024/01/17 00:17:05;;;;;;;20.27;10.93;;;3.00;93.90;;;;;;4248561;27;20043;-58
2024/01/17 00:19:07;;;;;;;17.33;10.60;;;3.00;93.40;;;;;;4248831;27;20300;-57
2024/01/17 00:21:10;;;;;;;18.63;11.20;;;2.90;93.30;;;;;;4248996;27;20043;-58
2024/01/17 00:23:13;;;;;;;17.40;10.88;;;2.80;93.40;;;;;;4250606;27;20043;-58
2024/01/17 00:25:15;;;;;;;16.73;10.45;;;2.80;93.70;;;;;;4251721;27;20075;-57
2024/01/17 00:27:18;;;;;;;18.17;9.65;;;2.90;93.90;;;;;;4250618;27;20103;-58
2024/01/17 00:29:20;;;;;;;20.10;10.70;;;2.90;94.10;;;;;;4249669;27;20043;-57
2024/01/17 00:31:23;;;;;;;16.42;10.50;;;2.80;94.10;;;;;;4248446;27;20039;-57
2024/01/17 00:33:25;;;;;;;15.32;10.52;;;2.80;94.00;;;;;;4248773;27;20169;-58
2024/01/17 00:35:27;;;;;;;18.70;11.40;;;3.00;94.20;;;;;;4248884;27;20506;-57
2024/01/17 00:37:31;;;;;;;17.98;10.75;;;3.10;94.30;;;;;;4248601;27;20053;-57
2024/01/17 00:39:36;;;;;;;16.60;10.27;;;3.00;94.40;;;;;;4249288;27;20046;-57
2024/01/17 00:41:38;;;;;;;18.02;10.68;;;2.90;94.20;;;;;;4251688;27;20062;-61
2024/01/17 00:43:40;;;;;;;20.02;12.15;;;2.90;94.30;;;;;;4252055;27;20043;-59
2024/01/17 00:45:42;;;;;;;21.48;11.48;;;2.90;94.30;;;;;;4250610;27;20056;-58
2024/01/17 00:47:45;;;;;;;16.83;10.15;;;2.90;94.50;;;;;;4249653;27;20541;-57
2024/01/17 00:49:48;;;;;;;18.50;10.85;;;2.90;95.00;;;;;;4248628;27;20103;-57
2024/01/17 00:51:50;;;;;;;15.07;10.05;;;3.00;95.10;;;;;;4248293;27;20039;-57
2024/01/17 00:53:53;;;;;;;18.10;11.23;;;3.00;95.00;;;;;;4248491;27;20086;-56
2024/01/17 00:55:56;;;;;;;11.03;7.23;;;3.10;95.30;;;;;;4237224;27;20439;-56
2024/01/17 00:57:58;;;;;;;18.50;11.75;;;3.10;95.10;;;;;;4231770;28;20467;-57
2024/01/17 01:00:00;;;;;;;18.05;11.93;;;3.10;95.00;;;;;;4231464;28;20130;-57
2024/01/17 01:02:03;;;;;;;16.05;11.25;;;3.10;95.70;;;;;;4232012;28;20096;-57
2024/01/17 01:04:07;;;;;;;18.13;11.40;;;3.00;95.70;;;;;;4232663;28;20092;-57
2024/01/17 01:06:09;;;;;;;20.15;13.00;;;3.10;96.10;;;;;;4234254;28;20043;-57
2024/01/17 01:08:11;;;;;;;19.55;12.23;;;3.00;96.00;;;;;;4234312;28;20099;-58
2024/01/17 01:10:15;;;;;;;20.02;12.60;;;3.00;96.00;;;;;;4233233;28;20048;-61
2024/01/17 01:12:17;;;;;;;16.98;11.77;;;3.00;96.60;;;;;;4231581;28;20079;-61
2024/01/17 01:14:19;;;;;;;17.73;12.15;;;3.00;96.60;;;;;;4231624;28;20127;-56
2024/01/17 01:16:21;;;;;;;18.80;11.98;;;3.00;96.50;;;;;;4231542;28;20044;-57
2024/01/17 01:18:23;;;;;;;20.40;12.27;;;2.70;96.70;;;;;;4230960;28;20047;-57
2024/01/17 01:20:25;;;;;;;19.25;12.60;;;2.80;97.20;;;;;;4230850;28;20043;-57
2024/01/17 01:22:27;;;;;;;20.05;12.57;;;2.70;96.80;;;;;;4230973;28;20059;-57
2024/01/17 01:24:29;;;;;;;18.75;13.05;;;2.80;97.00;;;;;;4230908;28;20118;-57
2024/01/17 01:26:35;;;;;;;20.92;13.30;;;2.80;97.00;;;;;;4213201;28;20055;-57
2024/01/17 01:28:37;;;;;;;19.88;12.98;;;2.90;97.50;;;;;;4230864;28;20054;-60
2024/01/17 01:30:39;;;;;;;19.45;13.15;;;3.00;97.40;;;;;;4232356;28;20410;-57
2024/01/17 01:32:42;;;;;;;23.75;13.85;;;2.90;97.40;;;;;;4234548;28;20413;-57
2024/01/17 01:34:44;;;;;;;20.45;13.07;;;2.80;97.50;;;;;;4234473;28;20380;-57
2024/01/17 01:36:46;;;;;;;21.40;13.55;;;2.70;97.60;;;;;;4234599;28;20070;-58
2024/01/17 01:38:48;;;;;;;20.90;12.70;;;2.80;98.20;;;;;;4234973;28;20567;-58
2024/01/17 01:40:50;;;;;;;20.05;13.18;;;2.80;98.10;;;;;;4235392;28;20172;-61
2024/01/17 01:42:58;;;;;;;21.38;13.10;;;2.90;98.40;;;;;;4235633;28;20051;-57
2024/01/17 01:45:00;;;;;;;23.17;14.50;;;2.90;98.20;;;;;;4235462;28;20044;-62
2024/01/17 01:47:03;;;;;;;21.98;13.65;;;2.90;97.80;;;;;;4235802;28;20039;-58
2024/01/17 01:49:07;;;;;;;20.25;13.02;;;2.90;98.10;;;;;;4235560;28;20047;-57
2024/01/17 01:51:11;;;;;;;22.05;13.85;;;2.90;98.30;;;;;;4235220;28;20044;-58
2024/01/17 01:53:14;;;;;;;18.90;11.95;;;2.80;98.00;;;;;;4234526;28;20043;-57
2024/01/17 01:55:16;;;;;;;20.75;13.18;;;3.00;98.50;;;;;;4239882;27;20084;-62
2024/01/17 01:57:20;;;;;;;24.33;14.48;;;3.00;98.30;;;;;;4251247;27;20138;-59
2024/01/17 01:59:24;;;;;;;19.00;13.27;;;3.10;98.40;;;;;;4250997;27;20071;-57
2024/01/17 02:01:28;;;;;;;22.52;14.15;;;2.90;98.10;;;;;;4251371;27;20126;-57
2024/01/17 02:03:30;;;;;;;21.13;13.07;;;3.10;98.50;;;;;;4251033;27;20049;-57
2024/01/17 02:05:32;;;;;;;19.73;13.48;;;3.00;98.40;;;;;;4251346;27;20047;-57
2024/01/17 02:07:37;;;;;;;17.75;12.82;;;3.10;98.60;;;;;;4251250;27;20385;-58
2024/01/17 02:09:39;;;;;;;21.98;13.20;;;3.10;98.90;;;;;;4253408;27;20126;-58
2024/01/17 02:11:42;;;;;;;19.83;14.13;;;3.00;98.70;;;;;;4228130;28;20048;-57
2024/01/17 02:13:44;;;;;;;21.75;14.38;;;3.00;99.10;;;;;;4217131;28;20044;-57
2024/01/17 02:15:47;;;;;;;20.33;13.93;;;3.10;98.90;;;;;;4217083;28;20051;-57
2024/01/17 02:17:50;;;;;;;20.90;13.65;;;3.20;98.90;;;;;;4216904;28;20043;-58
2024/01/17 02:19:52;;;;;;;21.45;13.40;;;3.10;99.00;;;;;;4217002;28;20044;-57
2024/01/17 02:21:54;;;;;;;20.00;13.10;;;3.20;99.20;;;;;;4216971;28;20101;-56
2024/01/17 02:24:16;;;;;;;18.58;12.35;;;3.20;99.00;;;;;;4215631;28;20075;-57
2024/01/17 02:26:19;;;;;;;19.77;13.15;;;3.30;99.20;;;;;;4216647;28;20099;-58
2024/01/17 02:28:21;;;;;;;20.08;14.18;;;3.30;98.70;;;;;;4216598;28;20052;-57
2024/01/17 02:30:23;;;;;;;25.00;15.25;;;3.20;98.40;;;;;;4216744;28;20044;-57
2024/01/17 02:32:26;;;;;;;23.73;14.07;;;3.20;98.20;;;;;;4216523;28;20044;-57
2024/01/17 02:34:29;;;;;;;24.55;15.27;;;3.20;98.70;;;;;;4216679;28;20130;-57
2024/01/17 02:36:31;;;;;;;21.00;14.77;;;3.20;98.70;;;;;;4216869;28;20048;-57
2024/01/17 02:38:33;;;;;;;21.42;14.25;;;3.00;98.70;;;;;;4216474;28;20044;-57
2024/01/17 02:40:36;;;;;;;22.10;13.93;;;3.00;98.60;;;;;;4216493;28;20047;-56
2024/01/17 02:42:38;;;;;;;22.02;13.40;;;3.00;99.10;;;;;;4216140;28;20483;-57
2024/01/17 02:44:40;;;;;;;22.80;14.75;;;2.90;99.30;;;;;;4216660;28;20137;-57
2024/01/17 02:46:43;;;;;;;24.20;14.50;;;2.90;99.40;;;;;;4216760;28;20048;-58
2024/01/17 02:48:45;;;;;;;25.33;14.13;;;3.00;99.40;;;;;;4216651;28;20170;-57
2024/01/17 02:50:48;;;;;;;30.52;14.50;;;3.00;99.50;;;;;;4216466;28;20682;-56
2024/01/17 02:52:52;;;;;;;20.10;13.10;;;2.90;99.40;;;;;;4216512;28;20044;-57
2024/01/17 02:54:54;;;;;;;19.02;13.30;;;2.90;99.60;;;;;;4216505;28;20044;-57
2024/01/17 02:56:57;;;;;;;19.73;13.38;;;3.00;99.60;;;;;;4215861;28;20054;-57
2024/01/17 02:59:00;;;;;;;19.98;13.85;;;2.90;99.60;;;;;;4216478;28;20134;-57
2024/01/17 03:01:02;;;;;;;24.88;15.02;;;3.00;99.90;;;;;;4216494;28;20123;-57
2024/01/17 03:03:05;;;;;;;22.08;15.00;;;3.10;99.90;;;;;;4215317;28;20044;-57
2024/01/17 03:05:08;;;;;;;22.95;15.10;;;3.00;99.90;;;;;;4216340;28;20483;-57
2024/01/17 03:07:10;;;;;;;23.25;13.10;;;3.00;99.90;;;;;;4215095;28;20094;-57
2024/01/17 03:09:12;;;;;;;20.50;13.90;;;3.10;99.90;;;;;;4216202;28;20044;-57
2024/01/17 03:11:14;;;;;;;18.52;12.55;;;3.20;99.90;;;;;;4219077;27;20083;-57
2024/01/17 03:13:18;;;;;;;19.65;12.57;;;3.20;99.90;;;;;;4250174;27;20051;-56
2024/01/17 03:15:20;;;;;;;20.50;13.05;;;3.20;99.90;;;;;;4250766;27;20100;-58
2024/01/17 03:17:22;;;;;;;23.42;14.02;;;3.10;99.90;;;;;;4250197;27;20047;-57
2024/01/17 03:19:24;;;;;;;22.15;15.00;;;3.00;99.90;;;;;;4250038;27;20080;-58
2024/01/17 03:21:27;;;;;;;23.58;15.32;;;3.10;99.90;;;;;;4250128;27;20051;-57
2024/01/17 03:23:29;;;;;;;20.33;14.30;;;3.30;99.90;;;;;;4249900;27;20057;-63
2024/01/17 03:25:31;;;;;;;23.25;14.10;;;3.20;99.90;;;;;;4249698;27;20104;-60
2024/01/17 03:27:33;;;;;;;24.23;16.05;;;3.10;99.90;;;;;;4250080;27;20039;-57
2024/01/17 03:29:37;;;;;;;23.77;15.93;;;3.10;99.90;;;;;;4249925;27;20092;-59
2024/01/17 03:31:39;;;;;;;23.73;15.48;;;3.20;99.90;;;;;;4231658;28;20047;-57
2024/01/17 03:33:41;;;;;;;25.75;16.67;;;3.20;99.90;;;;;;4249716;27;20046;-57
2024/01/17 03:35:43;;;;;;;26.27;16.10;;;3.20;99.90;;;;;;4250397;27;20122;-57
2024/01/17 03:37:45;;;;;;;24.45;16.15;;;3.00;99.90;;;;;;4250793;27;20043;-57
2024/01/17 03:39:48;;;;;;;23.50;16.27;;;3.00;99.90;;;;;;4251723;27;20039;-58
2024/01/17 03:41:49;;;;;;;22.67;15.10;;;3.10;99.90;;;;;;4251850;27;20047;-58
2024/01/17 03:43:52;;;;;;;26.48;17.20;;;3.10;99.90;;;;;;4251671;27;20126;-67
2024/01/17 03:45:57;;;;;;;25.20;16.45;;;3.10;99.90;;;;;;4254156;27;20449;-69
2024/01/17 03:47:59;;;;;;;25.98;16.17;;;3.00;99.90;;;;;;4253101;27;20420;-63
2024/01/17 03:50:01;;;;;;;26.55;16.50;;;3.00;99.90;;;;;;4252875;27;20094;-63
2024/01/17 03:52:07;;;;;;;27.40;17.65;;;3.00;99.90;;;;;;4253664;27;20046;-65
2024/01/17 03:54:09;;;;;;;25.23;16.65;;;2.90;99.90;;;;;;4252809;27;20082;-58
2024/01/17 03:56:11;;;;;;;28.42;17.58;;;2.90;99.90;;;;;;4235455;28;20043;-60
2024/01/17 03:58:13;;;;;;;27.95;18.60;;;2.90;99.90;;;;;;4252538;27;20158;-66
2024/01/17 04:00:16;;;;;;;26.35;17.77;;;2.80;99.90;;;;;;4252813;27;20503;-59
2024/01/17 04:02:22;;;;;;;27.77;17.77;;;2.90;99.90;;;;;;4253028;27;20054;-59
2024/01/17 04:04:24;;;;;;;28.23;16.80;;;2.80;99.90;;;;;;4252200;27;20597;-58
2024/01/17 04:06:28;;;;;;;27.27;17.02;;;2.70;99.90;;;;;;4251510;27;20525;-58
2024/01/17 04:08:31;;;;;;;23.02;14.65;;;2.70;99.90;;;;;;4250594;27;20047;-57
2024/01/17 04:10:33;;;;;;;31.85;17.90;;;2.70;99.90;;;;;;4251220;27;20469;-57
2024/01/17 04:12:35;;;;;;;29.80;17.55;;;2.60;99.90;;;;;;4251016;27;20055;-57
2024/01/17 04:14:37;;;;;;;23.48;15.90;;;2.60;99.90;;;;;;4251334;27;20047;-57
2024/01/17 04:16:39;;;;;;;24.63;17.55;;;2.60;99.90;;;;;;4249309;27;20051;-57
2024/01/17 04:18:44;;;;;;;27.52;16.95;;;2.60;99.90;;;;;;4249172;27;20127;-57
2024/01/17 04:20:46;;;;;;;29.05;16.63;;;2.50;99.90;;;;;;4248872;27;20122;-57
2024/01/17 04:22:49;;;;;;;27.92;17.73;;;2.60;99.90;;;;;;4251211;27;20054;-64
2024/01/17 04:24:51;;;;;;;31.08;17.23;;;2.60;99.90;;;;;;4251257;27;20043;-56
2024/01/17 04:26:54;;;;;;;25.83;16.85;;;2.60;99.90;;;;;;4249165;27;20099;-57
2024/01/17 04:28:56;;;;;;;25.88;18.05;;;2.60;99.90;;;;;;4249055;27;20051;-57
2024/01/17 04:30:58;;;;;;;29.25;17.30;;;2.60;99.90;;;;;;4249045;27;20053;-57
2024/01/17 04:33:00;;;;;;;25.77;17.33;;;2.50;99.90;;;;;;4248663;27;20050;-58
2024/01/17 04:35:05;;;;;;;24.55;16.95;;;2.60;99.90;;;;;;4248760;27;20406;-57
2024/01/17 04:37:07;;;;;;;26.35;17.52;;;2.40;99.90;;;;;;4230332;28;20123;-57
2024/01/17 04:39:10;;;;;;;24.95;16.60;;;2.40;99.90;;;;;;4248357;27;20047;-57
2024/01/17 04:41:13;;;;;;;27.65;17.08;;;2.50;99.90;;;;;;4248751;27;20047;-57
2024/01/17 04:43:15;;;;;;;28.52;18.25;;;2.50;99.90;;;;;;4248812;27;20046;-57
2024/01/17 04:45:18;;;;;;;27.98;17.30;;;2.40;99.90;;;;;;4248679;27;20046;-57
2024/01/17 04:47:21;;;;;;;30.55;18.40;;;2.40;99.90;;;;;;4248706;27;20043;-57
2024/01/17 04:49:26;;;;;;;32.95;19.92;;;2.40;99.90;;;;;;4248615;27;20455;-57
2024/01/17 04:51:30;;;;;;;27.05;18.02;;;2.30;99.90;;;;;;4248623;27;20104;-62
2024/01/17 04:53:37;;;;;;;30.58;19.35;;;2.30;99.90;;;;;;4248127;27;20444;-57
2024/01/17 04:55:41;;;;;;;30.42;18.88;;;2.40;99.90;;;;;;4230064;28;20169;-57
2024/01/17 04:57:43;;;;;;;29.02;18.77;;;2.50;99.90;;;;;;4248785;27;20063;-57
2024/01/17 04:59:45;;;;;;;27.85;19.40;;;2.40;99.90;;;;;;4248377;27;20047;-57
2024/01/17 05:01:47;;;;;;;34.35;17.75;;;2.30;99.90;;;;;;4248471;27;20135;-57
2024/01/17 05:03:49;;;;;;;31.48;18.58;;;2.20;99.90;;;;;;4248322;27;20478;-57
2024/01/17 05:05:51;;;;;;;36.38;19.67;;;2.30;99.90;;;;;;4247476;27;20054;-56
2024/01/17 05:07:55;;;;;;;29.40;18.42;;;2.30;99.90;;;;;;4248336;27;20046;-57
2024/01/17 05:09:57;;;;;;;26.65;17.88;;;2.30;99.90;;;;;;4248914;27;20494;-57
2024/01/17 05:11:59;;;;;;;31.08;18.40;;;2.40;99.90;;;;;;4249301;27;20047;-57
2024/01/17 05:14:01;;;;;;;32.67;18.90;;;2.40;99.90;;;;;;4248460;27;20126;-58
2024/01/17 05:16:03;;;;;;;24.83;17.05;;;2.40;99.90;;;;;;4248247;27;20386;-57
2024/01/17 05:18:07;;;;;;;29.30;18.65;;;2.30;99.90;;;;;;4248392;27;20039;-58
2024/01/17 05:20:10;;;;;;;26.48;17.08;;;2.40;99.90;;;;;;4248092;27;20058;-58
2024/01/17 05:22:14;;;;;;;29.88;17.42;;;2.30;99.90;;;;;;4249493;27;20039;-57
2024/01/17 05:24:18;;;;;;;18.13;12.10;;;2.40;99.90;;;;;;4251013;27;20490;-57
2024/01/17 05:26:20;;;;;;;23.80;15.75;;;2.60;99.90;;;;;;4250670;28;20107;-62
2024/01/17 05:28:22;;;;;;;23.45;15.55;;;2.70;99.90;;;;;;4251025;28;20067;-57
2024/01/17 05:30:25;;;;;;;20.90;13.70;;;2.70;99.90;;;;;;4250321;28;20043;-57
2024/01/17 05:32:27;;;;;;;22.67;15.02;;;2.70;99.90;;;;;;4249810;28;20125;-58
2024/01/17 05:34:29;;;;;;;23.35;14.77;;;2.70;99.90;;;;;;4250645;28;20039;-59
2024/01/17 05:36:31;;;;;;;21.02;14.35;;;2.70;99.90;;;;;;4250472;28;20054;-57
2024/01/17 05:38:35;;;;;;;24.13;15.50;;;2.90;99.90;;;;;;4251001;28;20047;-58
2024/01/17 05:40:39;;;;;;;24.60;15.20;;;2.90;99.90;;;;;;4251241;28;20418;-59
2024/01/17 05:42:43;;;;;;;23.63;16.27;;;2.80;99.90;;;;;;4250623;28;20130;-61
2024/01/17 05:44:46;;;;;;;15.75;11.10;;;2.90;99.90;;;;;;4248922;28;20040;-57
2024/01/17 05:46:48;;;;;;;21.23;16.63;;;2.80;99.90;;;;;;4248246;28;20467;-58
2024/01/17 05:48:50;;;;;;;23.33;14.80;;;2.80;99.90;;;;;;4248286;28;20127;-57
2024/01/17 05:50:53;;;;;;;21.15;15.40;;;2.80;99.90;;;;;;4247678;28;20113;-58
2024/01/17 05:52:55;;;;;;;23.30;16.60;;;2.80;99.90;;;;;;4247768;28;20050;-57
2024/01/17 05:54:57;;;;;;;24.55;16.05;;;2.80;99.90;;;;;;4247834;28;20099;-57
2024/01/17 05:57:00;;;;;;;20.95;14.90;;;2.70;99.90;;;;;;4247986;28;20059;-57
2024/01/17 05:59:02;;;;;;;23.27;16.60;;;2.70;99.90;;;;;;4249199;28;20043;-56
2024/01/17 06:01:05;;;;;;;25.27;15.57;;;2.70;99.90;;;;;;4248910;28;20401;-57
2024/01/17 06:03:07;;;;;;;22.90;15.57;;;2.60;99.90;;;;;;4231235;28;20048;-58
2024/01/17 06:05:10;;;;;;;21.85;14.10;;;2.60;99.90;;;;;;4248196;28;20138;-57
2024/01/17 06:07:14;;;;;;;23.15;15.30;;;2.60;99.90;;;;;;4248102;28;20039;-57
2024/01/17 06:09:16;;;;;;;24.45;16.55;;;2.60;99.90;;;;;;4248426;28;20126;-57
2024/01/17 06:11:18;;;;;;;21.88;15.48;;;2.60;99.90;;;;;;4249330;28;20046;-58
2024/01/17 06:13:21;;;;;;;22.75;15.75;;;2.70;99.90;;;;;;4248987;28;20123;-57
2024/01/17 06:15:24;;;;;;;25.63;15.35;;;2.60;99.90;;;;;;4230693;28;20524;-56
2024/01/17 06:17:26;;;;;;;21.98;15.70;;;2.60;99.90;;;;;;4250548;27;20490;-56
2024/01/17 06:19:28;;;;;;;25.63;16.70;;;2.60;99.90;;;;;;4250587;27;20084;-57
2024/01/17 06:21:30;;;;;;;21.70;15.27;;;2.60;99.90;;;;;;4251400;27;20053;-56
2024/01/17 06:23:32;;;;;;;22.23;15.27;;;2.60;99.90;;;;;;4251254;27;20043;-57
2024/01/17 06:25:35;;;;;;;23.90;16.38;;;2.60;99.90;;;;;;4250693;27;20047;-56
2024/01/17 06:27:37;;;;;;;24.33;16.45;;;2.50;99.90;;;;;;4250998;27;20050;-57
2024/01/17 06:29:41;;;;;;;21.67;13.73;;;2.40;99.90;;;;;;4250706;27;20405;-57
2024/01/17 06:31:46;;;;;;;25.30;16.63;;;2.50;99.90;;;;;;4232660;28;20051;-57
2024/01/17 06:33:48;;;;;;;25.83;14.88;;;2.40;99.90;;;;;;4250701;27;20047;-56
2024/01/17 06:35:51;;;;;;;21.35;15.48;;;2.40;99.90;;;;;;4250753;27;20106;-57
2024/01/17 06:37:53;;;;;;;23.08;15.80;;;2.50;99.90;;;;;;4250845;27;20122;-57
2024/01/17 06:39:55;;;;;;;28.23;17.30;;;2.60;99.90;;;;;;4250882;27;20129;-57
2024/01/17 06:41:58;;;;;;;24.02;16.73;;;2.60;99.90;;;;;;4250876;27;20070;-57
2024/01/17 06:44:00;;;;;;;24.88;15.45;;;2.70;99.90;;;;;;4251069;27;20055;-58
2024/01/17 06:46:03;;;;;;;27.23;17.40;;;2.70;99.90;;;;;;4250826;27;20047;-61
2024/01/17 06:48:06;;;;;;;21.40;14.40;;;2.60;99.90;;;;;;4249729;27;20047;-60
2024/01/17 06:50:09;;;;;;;25.48;16.20;;;2.60;99.90;;;;;;4250351;27;20477;-56
2024/01/17 06:52:11;;;;;;;21.92;15.60;;;2.50;99.90;;;;;;4250367;27;20047;-56
2024/01/17 06:54:14;;;;;;;27.52;16.55;;;2.50;99.90;;;;;;4250565;27;20043;-57
2024/01/17 06:56:16;;;;;;;23.58;15.18;;;2.50;99.90;;;;;;4250172;27;20047;-57
2024/01/17 06:58:18;;;;;;;25.25;15.98;;;2.50;99.90;;;;;;4250440;27;20096;-57
2024/01/17 07:00:20;;;;;;;25.02;14.52;;;2.60;99.90;;;;;;4231892;28;20048;-57
2024/01/17 07:02:27;;;;;;;24.17;16.30;;;2.60;99.90;;;;;;4249677;27;20039;-57
2024/01/17 07:04:29;;;;;;;21.23;15.13;;;2.60;99.90;;;;;;4250139;27;20047;-57
2024/01/17 07:06:31;;;;;;;22.40;15.57;;;2.60;99.90;;;;;;4250264;27;20494;-57
2024/01/17 07:08:33;;;;;;;24.00;14.57;;;2.60;99.90;;;;;;4250857;27;20379;-68
2024/01/17 07:10:36;;;;;;;23.83;14.82;;;2.60;99.90;;;;;;4252490;27;20286;-58
2024/01/17 07:12:38;;;;;;;20.20;13.75;;;2.70;99.90;;;;;;4252008;27;20414;-59
2024/01/17 07:14:40;;;;;;;24.30;13.38;;;2.70;99.90;;;;;;4252170;27;20103;-57
2024/01/17 07:16:42;;;;;;;18.50;12.27;;;2.70;99.90;;;;;;4250419;27;20130;-58
2024/01/17 07:18:45;;;;;;;19.15;13.80;;;2.70;99.90;;;;;;4250980;27;20043;-60
2024/01/17 07:20:49;;;;;;;18.83;11.65;;;2.80;99.90;;;;;;4250794;27;20150;-57
2024/01/17 07:22:55;;;;;;;19.73;11.93;;;2.80;99.90;;;;;;4251646;27;20054;-60
2024/01/17 07:24:58;;;;;;;23.73;13.40;;;2.80;99.90;;;;;;4252230;27;20074;-57
2024/01/17 07:27:00;;;;;;;23.85;14.15;;;2.90;99.90;;;;;;4252426;27;20043;-61
2024/01/17 07:29:02;;;;;;;18.70;13.27;;;2.80;99.90;;;;;;4251391;27;20043;-62
2024/01/17 07:31:04;;;;;;;17.17;12.23;;;2.70;99.90;;;;;;4252065;27;20500;-57
2024/01/17 07:33:07;;;;;;;18.48;13.32;;;2.70;99.90;;;;;;4251253;27;20047;-59
2024/01/17 07:35:10;;;;;;;18.08;12.88;;;2.70;99.90;;;;;;4253268;27;20088;-59
2024/01/17 07:37:12;;;;;;;20.27;13.27;;;2.70;99.90;;;;;;4250808;27;20039;-57
2024/01/17 07:39:21;;;;;;;18.17;13.63;;;2.70;99.90;;;;;;4250432;27;20048;-57
2024/01/17 07:41:23;;;;;;;22.42;13.15;;;2.70;99.90;;;;;;4249493;27;20047;-57
2024/01/17 07:43:25;;;;;;;17.05;12.05;;;2.70;99.90;;;;;;4249787;27;20391;-57
2024/01/17 07:45:28;;;;;;;25.13;13.77;;;2.70;99.90;;;;;;4249187;27;20090;-57
2024/01/17 07:47:30;;;;;;;20.58;13.00;;;2.80;99.90;;;;;;4249156;27;20043;-57
2024/01/17 07:49:36;;;;;;;19.50;12.93;;;2.70;99.90;;;;;;4249247;27;20206;-57
2024/01/17 07:51:39;;;;;;;18.08;12.65;;;2.70;99.90;;;;;;4249362;27;20092;-57
2024/01/17 07:53:41;;;;;;;23.92;13.65;;;2.70;99.90;;;;;;4231047;28;20051;-57
2024/01/17 07:55:43;;;;;;;17.50;12.82;;;2.70;99.90;;;;;;4249417;27;20051;-57
2024/01/17 07:57:45;;;;;;;16.05;10.90;;;2.70;99.90;;;;;;4249159;27;20092;-57
2024/01/17 07:59:47;;;;;;;14.63;10.90;;;2.60;99.90;;;;;;4249206;27;20126;-57
2024/01/17 08:01:49;;;;;;;16.55;12.90;;;2.60;99.90;;;;;;4248539;27;20039;-57
2024/01/17 08:03:51;;;;;;;20.55;12.73;;;2.60;99.90;;;;;;4249172;27;20166;-57
2024/01/17 08:05:55;;;;;;;15.38;10.75;;;2.60;99.90;;;;;;4249151;27;20494;-56
2024/01/17 08:07:59;;;;;;;23.38;10.45;;;2.70;99.90;;;;;;4249342;27;20039;-56
2024/01/17 08:10:01;;;;;;;16.80;10.45;;;2.80;99.90;;;;;;4249095;27;20051;-57
2024/01/17 08:12:06;;;;;;;18.23;12.13;;;2.80;99.90;;;;;;4248819;27;20055;-62
2024/01/17 08:14:09;;;;;;;17.80;12.13;;;2.90;99.90;;;;;;4248849;27;20047;-57
2024/01/17 08:16:11;;;;;;;15.32;11.88;;;2.90;99.90;;;;;;4248537;27;20395;-57
2024/01/17 08:18:14;;;;;;;19.30;11.05;;;2.90;99.90;;;;;;4230561;28;20530;-58
2024/01/17 08:20:17;;;;;;;21.65;13.07;;;2.90;99.90;;;;;;4249009;27;20069;-57
2024/01/17 08:22:19;;;;;;;18.17;12.40;;;2.90;99.90;;;;;;4248611;27;20521;-57
2024/01/17 08:24:22;;;;;;;16.98;12.52;;;2.90;99.90;;;;;;4249072;27;20046;-57
2024/01/17 08:26:25;;;;;;;29.75;12.73;;;2.90;99.90;;;;;;4248958;27;20130;-57
2024/01/17 08:28:27;;;;;;;21.77;13.40;;;2.80;99.90;;;;;;4230382;28;20043;-57
2024/01/17 08:30:29;;;;;;;19.52;12.80;;;2.90;99.90;;;;;;4247983;27;20451;-57
2024/01/17 08:32:33;;;;;;;22.48;13.30;;;2.90;99.90;;;;;;4248656;27;20499;-57
2024/01/17 08:34:35;;;;;;;22.75;13.05;;;2.90;99.90;;;;;;4248372;27;20059;-57
2024/01/17 08:36:37;;;;;;;23.45;13.55;;;2.90;99.90;;;;;;4248486;27;20085;-57
2024/01/17 08:38:39;;;;;;;19.52;13.43;;;2.80;99.90;;;;;;4248658;27;20417;-57
2024/01/17 08:40:43;;;;;;;22.15;14.25;;;2.80;99.90;;;;;;4248303;27;20296;-64
2024/01/17 08:42:45;;;;;;;19.58;12.70;;;2.70;99.90;;;;;;4248412;27;20047;-57
2024/01/17 08:44:47;;;;;;;19.05;11.93;;;2.80;99.90;;;;;;4248251;27;20055;-57
2024/01/17 08:46:50;;;;;;;17.58;12.27;;;2.80;99.90;;;;;;4248669;27;20043;-57
2024/01/17 08:48:52;;;;;;;20.88;13.23;;;2.90;99.90;;;;;;4248614;27;20053;-57
2024/01/17 08:50:55;;;;;;;18.02;12.43;;;2.90;99.90;;;;;;4248877;27;20050;-57
2024/01/17 08:52:58;;;;;;;17.27;11.50;;;2.80;99.90;;;;;;4249794;27;20088;-58
2024/01/17 08:55:02;;;;;;;18.77;12.13;;;2.90;99.90;;;;;;4249277;27;20039;-57
2024/01/17 08:57:08;;;;;;;17.15;8.27;;;2.90;99.90;;;;;;4248598;27;20047;-57
2024/01/17 08:59:10;;;;;;;15.73;11.82;;;3.00;99.90;;;;;;4248018;27;20042;-57
2024/01/17 09:01:13;;;;;;;19.98;11.98;;;3.00;99.90;;;;;;4248453;27;20107;-57
2024/01/17 09:03:15;;;;;;;21.80;11.05;;;3.00;99.90;;;;;;4246032;27;20043;-57
2024/01/17 09:05:18;;;;;;;17.73;11.68;;;3.10;99.90;;;;;;4240390;27;20535;-58
2024/01/17 09:07:20;;;;;;;14.73;10.90;;;3.20;99.90;;;;;;4245713;27;20123;-57
2024/01/17 09:09:26;;;;;;;17.30;12.50;;;3.20;99.90;;;;;;4242560;27;20053;-62
2024/01/17 09:11:29;;;;;;;13.13;9.95;;;3.10;99.90;;;;;;4246006;27;20051;-57
2024/01/17 09:13:32;;;;;;;14.15;10.65;;;3.10;99.90;;;;;;4236310;27;20131;-57
2024/01/17 09:15:35;;;;;;;11.00;9.10;;;3.10;99.90;;;;;;4213243;28;20078;-58
2024/01/17 09:17:37;;;;;;;17.48;9.20;;;3.10;99.90;;;;;;4236265;27;20054;-57
2024/01/17 09:19:39;;;;;;;15.02;9.27;;;3.20;99.90;;;;;;4244452;27;20081;-56
2024/01/17 09:21:41;;;;;;;12.85;9.70;;;3.30;99.90;;;;;;4233223;27;20055;-56
2024/01/17 09:23:43;;;;;;;14.45;10.45;;;3.30;99.90;;;;;;4232580;27;20052;-56
2024/01/17 09:25:45;;;;;;;10.90;7.93;;;3.30;99.90;;;;;;4230517;28;20105;-56
2024/01/17 09:27:47;;;;;;;12.38;8.90;;;3.20;99.90;;;;;;4240747;27;20046;-57
2024/01/17 09:29:51;;;;;;;14.65;9.82;;;3.20;99.90;;;;;;4247995;28;20049;-57
2024/01/17 09:31:53;;;;;;;8.82;7.38;;;3.20;99.90;;;;;;4234717;28;20123;-56
2024/01/17 09:33:57;;;;;;;10.93;9.10;;;3.20;99.90;;;;;;4233687;27;20475;-57
2024/01/17 09:35:59;;;;;;;12.38;9.30;;;3.20;99.90;;;;;;4243387;28;20475;-57
2024/01/17 09:38:06;;;;;;;;;;;3.30;99.90;;;;;;4245887;27;20047;-56
2024/01/17 09:40:10;;;;;;;14.80;8.18;;;3.30;99.90;;;;;;4256497;27;19926;-57
2024/01/17 09:42:14;;;;;;;10.45;8.90;;;3.30;99.90;;;;;;4261909;27;20046;-57
2024/01/17 09:44:16;;;;;;;12.95;9.57;;;3.30;99.90;;;;;;4244850;27;20371;-57
2024/01/17 09:46:19;;;;;;;16.48;8.43;;;3.30;99.90;;;;;;4258854;27;20042;-56
2024/01/17 09:48:25;;;;;;;16.80;8.38;;;3.40;99.90;;;;;;4246214;27;20039;-56
2024/01/17 09:50:29;;;;;;;10.18;7.63;;;3.40;99.90;;;;;;4251153;27;20043;-56
2024/01/17 09:52:33;;;;;;;12.80;7.63;;;3.40;99.90;;;;;;4249436;27;20158;-56
2024/01/17 09:54:42;;;;;;;13.18;8.52;;;3.40;99.90;;;;;;4250581;27;20509;-56
2024/01/17 09:56:46;;;;;;;15.25;9.25;;;3.50;99.90;;;;;;4241219;27;20050;-56
2024/01/17 09:58:52;;;;;;;10.35;7.50;;;3.50;99.90;;;;;;4255298;27;20049;-57
2024/01/17 10:00:56;;;;;;;12.57;7.60;;;3.50;99.90;;;;;;4252521;27;20068;-57
2024/01/17 10:03:02;;;;;;;8.45;6.40;;;3.50;99.90;;;;;;4267791;27;20066;-56
2024/01/17 10:05:07;;;;;;;10.32;6.47;;;3.50;99.90;;;;;;4259531;27;20047;-57
2024/01/17 10:07:10;;;;;;;12.65;8.07;;;3.50;99.90;;;;;;4254074;27;20066;-57
2024/01/17 10:09:13;;;;;;;13.82;9.18;;;3.50;99.90;;;;;;4246213;27;20049;-56
2024/01/17 10:11:16;;;;;;;10.00;7.33;;;3.40;99.90;;;;;;4251373;27;20047;-57
2024/01/17 10:13:18;;;;;;;10.57;8.27;;;3.40;99.90;;;;;;4263076;27;20455;-57
2024/01/17 10:15:22;;;;;;;13.52;8.10;;;3.40;99.90;;;;;;4254383;27;20047;-60
2024/01/17 10:17:25;;;;;;;10.73;8.93;;;3.40;99.90;;;;;;4255031;27;20047;-62
2024/01/17 10:19:28;;;;;;;12.63;8.75;;;3.30;99.90;;;;;;4235268;28;20043;-56
2024/01/17 10:21:33;;;;;;;9.23;6.45;;;3.30;99.90;;;;;;4253295;27;20050;-56
2024/01/17 10:23:38;;;;;;;11.32;7.97;;;3.20;99.90;;;;;;4233562;28;20052;-56
2024/01/17 10:25:41;;;;;;;14.10;9.27;;;3.30;99.90;;;;;;4245499;27;20058;-57
2024/01/17 10:27:47;;;;;;;12.57;9.10;;;3.30;99.90;;;;;;4240121;27;20050;-56
2024/01/17 10:29:50;;;;;;;15.20;8.13;;;3.30;99.90;;;;;;4249619;27;20049;-62
2024/01/17 10:31:57;;;;;;;16.25;10.85;;;3.30;99.90;;;;;;4261387;27;20130;-58